Portada
METAR-TAF:

METAR-TAF

Aeropuertos :

Sakakah, Arabia Saudita

latitud: 29-47N, longitud: 040-06E, altitud: 689 m

Observación

El informe se hizo hace 23 minutos, a las 04:00 UTC
Viento calma
Temperatura 1°C
Humedad 55%
Presión 1018 hPa
Visibilidad 10 km o más
sin nubes por debajo de 1500 m y sin presencia de cumulonimbus.

METAR: OESK 230400Z 00000KT CAVOK 01/M07 Q1018

Hora: 07:23 (04:23 UTC)

Pronóstico

El informe se hizo hace 5 horas y 23 minutos, a las 23:00 UTC
Pronóstico válido del 23 a las 00 UTC al 24 a las 06 UTC
Viento 3 kt con dirección variable
Visibilidad 10 km o más
sin nubes por debajo de 1500 m y sin presencia de cumulonimbus.
Evolucionando progresivamente
del 23 a las 06 UTC al 23 a las 08 UTC
Viento 12 kt del oeste
Evolucionando progresivamente
del 23 a las 20 UTC al 23 a las 22 UTC
Viento 3 kt con dirección variable

TAF: OESK 222300Z 2300/2406 VRB03KT CAVOK BECMG 2306/2308 26012KT BECMG 2320/2322 VRB03KT

Observaciones y pronósticos meteorológicos de más de 4000 aeropuertos (mensajes METAR y TAF).

Los puntos amarillos y rojos representan las estaciones disponibles.

Ponga el ratón en el punto deseado para ver el nombre de la estación.

Haga clic para ver las observaciones y los pronósticos meteorológicos.

Para cambiar el mapa : haga clic en los botones verdes con una cruz de color negro para hacer un zoom, en el botón verde con un guión para alejar o en las flechas verdes para mapas adyacentes.


METAR-TAF: